Time;durP1;ratioP1;P1;durP2;ratioP2;P2;SDS_P1;SDS_P2;PMS_P1;PMS_P2;Temp;Humidity;BMP_temperature;BMP_pressure;BME280_temperature;BME280_humidity;BME280_pressure;Samples;Min_cycle;Max_cycle;Signal;HPM_P1;HPM_P2
2021/11/17 02:26:43;;;;;;;6.57;2.78;;;6.20;91.80;;;;;;4972269;28;20045;-78
2021/11/17 02:29:43;;;;;;;6.20;2.63;;;6.20;91.80;;;;;;4953272;28;20047;-78
2021/11/17 02:32:32;;;;;;;7.82;2.40;;;6.20;91.80;;;;;;4937624;28;20051;-79
2021/11/17 02:35:14;;;;;;;7.88;2.75;;;6.20;91.80;;;;;;4972362;28;20058;-79
2021/11/17 02:38:01;;;;;;;5.90;2.35;;;6.20;91.80;;;;;;4957836;28;20416;-79
2021/11/17 02:40:43;;;;;;;8.43;3.08;;;6.20;91.80;;;;;;4956545;28;20043;-79
2021/11/17 02:43:41;;;;;;;7.32;2.65;;;6.20;91.80;;;;;;4973519;28;20039;-79
2021/11/17 02:46:22;;;;;;;6.32;2.22;;;6.20;91.80;;;;;;4938870;28;20423;-78
2021/11/17 02:49:26;;;;;;;6.85;2.33;;;6.20;91.80;;;;;;4955657;28;20129;-78
2021/11/17 02:52:06;;;;;;;6.95;2.55;;;6.20;91.90;;;;;;4954253;28;20121;-79
2021/11/17 02:54:55;;;;;;;6.95;2.50;;;6.20;91.80;;;;;;4971672;28;20035;-78
2021/11/17 02:57:38;;;;;;;6.90;2.80;;;6.20;91.80;;;;;;4971563;28;20058;-78
2021/11/17 03:00:23;;;;;;;8.07;2.85;;;6.20;91.90;;;;;;4954401;28;20066;-79
2021/11/17 03:03:12;;;;;;;6.28;2.72;;;6.20;91.80;;;;;;4971884;28;20046;-78
2021/11/17 03:06:11;;;;;;;6.47;2.63;;;6.30;91.90;;;;;;4972067;28;20034;-79
2021/11/17 03:09:04;;;;;;;7.28;2.75;;;6.20;91.80;;;;;;4942990;28;20062;-79
2021/11/17 03:11:53;;;;;;;6.70;2.95;;;6.20;91.80;;;;;;4953405;28;20035;-78
2021/11/17 03:14:46;;;;;;;7.85;2.80;;;6.30;91.90;;;;;;4954264;28;20093;-78
2021/11/17 03:17:36;;;;;;;7.03;2.85;;;6.20;91.80;;;;;;4971962;28;20054;-78
2021/11/17 03:20:25;;;;;;;5.95;2.58;;;6.20;91.80;;;;;;4954352;28;20039;-79
2021/11/17 03:23:18;;;;;;;6.43;3.10;;;6.30;91.90;;;;;;4978809;28;20073;-79
2021/11/17 03:26:03;;;;;;;7.85;2.97;;;6.20;91.80;;;;;;4955681;28;20266;-78
2021/11/17 03:28:47;;;;;;;9.05;3.13;;;6.30;91.90;;;;;;4955318;28;20181;-78
2021/11/17 03:31:32;;;;;;;8.60;3.35;;;6.30;91.80;;;;;;4974979;28;20069;-79
2021/11/17 03:34:22;;;;;;;7.35;2.95;;;6.30;91.80;;;;;;4974811;28;20038;-79
2021/11/17 03:37:16;;;;;;;5.78;2.55;;;6.30;91.80;;;;;;4957383;28;20039;-79
2021/11/17 03:39:57;;;;;;;7.10;2.55;;;6.20;91.80;;;;;;4959381;28;20050;-78
2021/11/17 03:42:45;;;;;;;6.20;2.35;;;6.30;91.80;;;;;;4955854;28;20044;-79
2021/11/17 03:45:38;;;;;;;7.53;2.92;;;6.30;91.90;;;;;;4943328;28;20118;-79
2021/11/17 03:48:20;;;;;;;9.30;3.15;;;6.40;91.90;;;;;;4959494;28;20043;-79
2021/11/17 03:51:13;;;;;;;6.95;2.83;;;6.30;91.80;;;;;;4958000;28;20126;-79
2021/11/17 03:53:56;;;;;;;7.50;2.80;;;6.30;91.90;;;;;;4959763;28;20035;-78
2021/11/17 03:56:39;;;;;;;8.00;2.72;;;6.40;92.20;;;;;;4957259;28;20027;-78
2021/11/17 03:59:44;;;;;;;6.00;2.85;;;6.30;91.90;;;;;;4958792;28;20050;-79
2021/11/17 04:02:39;;;;;;;7.68;3.13;;;6.30;91.90;;;;;;4960279;28;20066;-79
2021/11/17 04:05:27;;;;;;;7.90;2.90;;;6.30;91.80;;;;;;4959959;28;20547;-79
2021/11/17 04:08:10;;;;;;;6.20;2.42;;;6.30;91.80;;;;;;4957353;28;20422;-79
2021/11/17 04:11:00;;;;;;;5.22;2.20;;;6.40;91.90;;;;;;4974652;28;20043;-79
2021/11/17 04:14:00;;;;;;;6.75;2.88;;;6.30;91.80;;;;;;4976112;28;20053;-78
2021/11/17 04:16:57;;;;;;;6.65;2.75;;;6.50;91.90;;;;;;4945255;28;20053;-79
2021/11/17 04:19:37;;;;;;;7.32;2.88;;;6.40;91.90;;;;;;4929411;28;20038;-78
2021/11/17 04:22:22;;;;;;;7.47;2.95;;;6.40;91.80;;;;;;4956867;28;20046;-79
2021/11/17 04:25:15;;;;;;;7.07;3.00;;;6.40;91.80;;;;;;4956609;28;20620;-79
2021/11/17 04:28:01;;;;;;;8.95;3.20;;;6.40;91.80;;;;;;4972734;28;20116;-79
2021/11/17 04:30:43;;;;;;;7.70;3.20;;;6.40;91.80;;;;;;4942117;28;20066;-79
2021/11/17 04:33:31;;;;;;;6.82;2.92;;;6.40;91.80;;;;;;4955731;28;20039;-80
2021/11/17 04:36:21;;;;;;;5.88;2.70;;;6.40;91.80;;;;;;4958398;28;20043;-79
2021/11/17 04:39:21;;;;;;;8.07;2.80;;;6.40;91.80;;;;;;4973727;28;20500;-79
2021/11/17 04:42:03;;;;;;;5.68;2.53;;;6.40;91.90;;;;;;4972225;28;20058;-79
2021/11/17 04:44:48;;;;;;;;;;;6.40;91.80;;;;;;4956472;28;20031;-79
2021/11/17 04:47:38;;;;;;;7.22;2.70;;;6.40;91.80;;;;;;4957347;28;19907;-79
2021/11/17 04:50:26;;;;;;;8.23;3.13;;;6.40;91.80;;;;;;4958158;28;20035;-79
2021/11/17 04:53:22;;;;;;;8.35;2.70;;;6.30;91.80;;;;;;4957160;28;20450;-79
2021/11/17 04:56:09;;;;;;;7.30;2.97;;;6.40;91.90;;;;;;4973400;28;20058;-79
2021/11/17 04:59:03;;;;;;;11.05;3.50;;;6.40;91.80;;;;;;4973234;28;20046;-79
2021/11/17 05:01:57;;;;;;;6.60;2.65;;;6.40;91.80;;;;;;4939733;28;20046;-78
2021/11/17 05:04:46;;;;;;;8.40;2.95;;;6.40;91.80;;;;;;4945427;28;20588;-79
2021/11/17 05:07:34;;;;;;;7.63;3.05;;;6.40;91.80;;;;;;4941351;28;20460;-81
2021/11/17 05:10:33;;;;;;;7.90;2.70;;;6.40;91.80;;;;;;4973577;28;20047;-78
2021/11/17 05:13:28;;;;;;;8.13;2.65;;;6.40;91.80;;;;;;4955536;28;20120;-79
2021/11/17 05:16:12;;;;;;;5.82;2.50;;;6.40;91.80;;;;;;4955782;28;20074;-79
2021/11/17 05:19:05;;;;;;;6.20;2.40;;;6.40;91.80;;;;;;4939326;28;20489;-79
2021/11/17 05:22:04;;;;;;;5.85;2.10;;;6.40;91.90;;;;;;4973231;28;20101;-79
2021/11/17 05:24:46;;;;;;;5.90;2.30;;;6.40;91.90;;;;;;4954506;28;20066;-79
2021/11/17 05:27:34;;;;;;;4.40;1.83;;;6.40;91.90;;;;;;4960293;28;20069;-79
2021/11/17 05:30:34;;;;;;;5.07;1.95;;;6.40;91.90;;;;;;4955924;28;20046;-79
2021/11/17 05:33:31;;;;;;;6.05;2.13;;;6.40;92.00;;;;;;4944479;28;20046;-80
2021/11/17 05:36:13;;;;;;;4.18;1.92;;;6.40;92.00;;;;;;4958355;28;20113;-79
2021/11/17 05:38:54;;;;;;;4.95;1.83;;;6.40;92.00;;;;;;4924628;28;20195;-79
2021/11/17 05:41:35;;;;;;;5.45;2.03;;;6.40;92.00;;;;;;4924773;28;20093;-79
2021/11/17 05:44:18;;;;;;;8.23;2.20;;;6.40;92.00;;;;;;4956384;28;20043;-79
2021/11/17 05:47:02;;;;;;;5.32;2.13;;;6.40;92.00;;;;;;4942694;28;20174;-78
2021/11/17 05:49:53;;;;;;;5.55;2.00;;;6.40;92.00;;;;;;4941280;28;20039;-79
2021/11/17 05:52:53;;;;;;;5.35;2.17;;;6.40;92.00;;;;;;4940601;28;20050;-79
2021/11/17 05:55:53;;;;;;;4.47;2.00;;;6.40;92.00;;;;;;4971455;28;20066;-78
2021/11/17 05:58:47;;;;;;;5.32;2.10;;;6.40;92.00;;;;;;4956509;28;20445;-79
2021/11/17 06:01:25;;;;;;;7.53;2.55;;;6.40;92.30;;;;;;4941942;28;20457;-78
2021/11/17 06:04:00;;;;;;;5.68;2.25;;;6.50;92.00;;;;;;4939825;28;20059;-79
2021/11/17 06:06:25;;;;;;;5.00;2.17;;;6.60;92.00;;;;;;4972749;28;20507;-78
2021/11/17 06:08:54;;;;;;;4.40;1.88;;;6.50;92.00;;;;;;4972470;28;20120;-79
2021/11/17 06:11:22;;;;;;;6.07;2.13;;;6.50;91.90;;;;;;4955225;28;20042;-78
2021/11/17 06:13:48;;;;;;;5.55;2.22;;;6.50;92.20;;;;;;4939449;28;20046;-79
2021/11/17 06:16:14;;;;;;;5.38;2.22;;;6.50;91.90;;;;;;4955207;28;20374;-79
2021/11/17 06:18:42;;;;;;;5.63;2.40;;;6.50;91.90;;;;;;4939091;28;20409;-78
2021/11/17 06:21:09;;;;;;;5.82;2.22;;;6.50;91.90;;;;;;4938620;28;20075;-78
2021/11/17 06:23:45;;;;;;;7.80;2.30;;;6.60;92.00;;;;;;4972727;28;20047;-78
2021/11/17 06:26:14;;;;;;;6.88;2.60;;;6.60;92.00;;;;;;4971090;28;20497;-78
2021/11/17 06:28:41;;;;;;;7.22;2.40;;;6.60;91.90;;;;;;4938970;28;20098;-78
2021/11/17 06:31:06;;;;;;;5.85;2.28;;;6.60;91.90;;;;;;4970229;28;20036;-79
2021/11/17 06:33:32;;;;;;;6.97;2.42;;;6.50;91.90;;;;;;4972350;28;20366;-78
2021/11/17 06:35:58;;;;;;;5.68;2.45;;;6.60;91.90;;;;;;4972353;28;20064;-78
2021/11/17 06:38:27;;;;;;;6.85;2.28;;;6.70;91.90;;;;;;4954577;28;20047;-79
2021/11/17 06:40:54;;;;;;;5.53;2.25;;;6.60;92.20;;;;;;4954491;28;20071;-79
2021/11/17 06:43:19;;;;;;;5.05;2.10;;;6.60;91.90;;;;;;4955525;28;20043;-79
2021/11/17 06:45:52;;;;;;;5.95;2.63;;;6.70;91.90;;;;;;4938988;28;20519;-79
2021/11/17 06:48:19;;;;;;;5.85;2.00;;;6.70;91.90;;;;;;4955488;28;20046;-79
2021/11/17 06:50:46;;;;;;;6.72;2.53;;;6.70;91.90;;;;;;4972700;28;20448;-78
2021/11/17 06:53:13;;;;;;;5.85;2.15;;;6.70;91.90;;;;;;4939362;28;20883;-78
2021/11/17 06:55:39;;;;;;;5.72;2.28;;;6.70;91.90;;;;;;4972731;28;20057;-79
2021/11/17 06:58:08;;;;;;;6.57;2.35;;;6.70;91.90;;;;;;4972543;28;20042;-78
2021/11/17 07:00:37;;;;;;;6.20;2.53;;;6.70;91.90;;;;;;4951113;28;20051;-78
2021/11/17 07:03:04;;;;;;;7.25;2.70;;;6.70;91.90;;;;;;4973284;28;20038;-78
2021/11/17 07:05:30;;;;;;;6.32;2.42;;;6.80;91.90;;;;;;4958547;28;20145;-78
2021/11/17 07:07:57;;;;;;;7.65;2.55;;;6.70;91.90;;;;;;4975592;28;20097;-79
2021/11/17 07:10:26;;;;;;;4.53;1.98;;;6.70;91.90;;;;;;4957263;28;20043;-77
2021/11/17 07:12:57;;;;;;;6.80;2.13;;;6.70;91.90;;;;;;4975127;28;20098;-78
2021/11/17 07:15:26;;;;;;;8.57;2.58;;;6.70;91.90;;;;;;4975489;28;20106;-78
2021/11/17 07:17:52;;;;;;;6.50;2.28;;;6.70;91.90;;;;;;4981012;28;20047;-78
2021/11/17 07:20:19;;;;;;;6.90;2.58;;;6.80;91.90;;;;;;4982333;28;20112;-78
2021/11/17 07:22:46;;;;;;;8.40;3.10;;;6.80;91.90;;;;;;4977311;28;20067;-78
2021/11/17 07:25:15;;;;;;;7.32;2.58;;;6.80;91.90;;;;;;4959897;28;20393;-78
2021/11/17 07:27:41;;;;;;;5.68;2.50;;;6.80;91.90;;;;;;4977082;28;20039;-78
2021/11/17 07:30:11;;;;;;;7.80;2.45;;;6.90;91.90;;;;;;4975921;28;20042;-78
2021/11/17 07:32:36;;;;;;;7.80;2.50;;;6.80;91.90;;;;;;4958628;28;20043;-78
2021/11/17 07:35:06;;;;;;;7.78;2.92;;;6.80;91.90;;;;;;4958074;28;20385;-78
2021/11/17 07:37:31;;;;;;;6.85;2.53;;;6.80;91.90;;;;;;4975338;28;20138;-79
2021/11/17 07:39:57;;;;;;;7.18;2.60;;;6.80;91.90;;;;;;4965183;28;20067;-78
2021/11/17 07:42:23;;;;;;;7.50;2.55;;;6.80;91.90;;;;;;4991714;28;20599;-79
2021/11/17 07:44:49;;;;;;;8.15;2.20;;;6.90;91.90;;;;;;4998468;28;20037;-79
2021/11/17 07:47:15;;;;;;;6.72;2.67;;;6.90;91.90;;;;;;4974658;28;20150;-81
2021/11/17 07:49:52;;;;;;;5.43;2.47;;;6.90;91.90;;;;;;4961332;28;20073;-82
2021/11/17 07:52:29;;;;;;;5.80;2.20;;;6.90;91.90;;;;;;4949511;28;20117;-81
2021/11/17 07:54:55;;;;;;;6.13;2.30;;;7.00;91.90;;;;;;4931818;29;20043;-80
2021/11/17 07:57:24;;;;;;;6.78;2.35;;;6.90;91.90;;;;;;4952645;29;20074;-81
2021/11/17 07:59:57;;;;;;;6.38;2.70;;;6.90;91.90;;;;;;4935323;29;20047;-82
2021/11/17 08:02:25;;;;;;;7.35;2.83;;;7.00;91.90;;;;;;4939015;29;20075;-81
2021/11/17 08:04:50;;;;;;;6.78;2.80;;;7.00;91.90;;;;;;4889374;29;20435;-83
2021/11/17 08:07:20;;;;;;;7.65;2.92;;;7.00;91.90;;;;;;4921415;29;20099;-81
2021/11/17 08:09:49;;;;;;;6.38;2.58;;;7.00;91.90;;;;;;4941486;29;20091;-81
2021/11/17 08:12:15;;;;;;;7.22;2.60;;;7.10;91.90;;;;;;4938585;29;20087;-81
2021/11/17 08:26:04;;;;;;;6.88;2.72;;;7.20;91.80;;;;;;4695016;30;20533;-84
2021/11/17 08:28:43;;;;;;;7.53;3.25;;;7.20;91.80;;;;;;4696576;30;20058;-81
2021/11/17 08:31:12;;;;;;;8.98;3.55;;;7.30;91.80;;;;;;4697674;30;20053;-80
2021/11/17 08:33:39;;;;;;;6.80;3.05;;;7.30;91.70;;;;;;4685808;30;20034;-81
2021/11/17 08:36:07;;;;;;;9.43;3.25;;;7.40;91.70;;;;;;4685180;30;20072;-85
2021/11/17 08:38:34;;;;;;;6.80;2.75;;;7.40;91.70;;;;;;4697232;30;20049;-81
2021/11/17 08:41:05;;;;;;;8.90;3.03;;;7.40;91.70;;;;;;4684434;30;20058;-81
2021/11/17 08:43:32;;;;;;;8.80;3.20;;;7.50;91.70;;;;;;4682731;30;20707;-81
2021/11/17 08:45:59;;;;;;;7.30;2.88;;;7.40;91.70;;;;;;4684548;30;20350;-81
2021/11/17 08:48:28;;;;;;;8.48;3.17;;;7.40;91.70;;;;;;4697640;30;20140;-79
2021/11/17 08:51:06;;;;;;;8.90;3.20;;;7.50;91.80;;;;;;5258155;23;20382;-87
2021/11/17 08:53:41;;;;;;;7.65;2.70;;;7.50;92.10;;;;;;4954021;28;20568;-83
2021/11/17 08:56:08;;;;;;;7.55;3.05;;;7.50;91.80;;;;;;4956659;28;20105;-81
2021/11/17 08:58:35;;;;;;;9.32;3.70;;;7.40;91.80;;;;;;4973945;28;20039;-81
2021/11/17 09:01:02;;;;;;;7.18;3.40;;;7.50;91.80;;;;;;4971196;28;20053;-80
2021/11/17 09:03:29;;;;;;;8.70;3.13;;;7.60;91.80;;;;;;4956223;28;20050;-81
2021/11/17 09:05:58;;;;;;;8.52;3.08;;;7.80;91.80;;;;;;4921757;28;20035;-80
2021/11/17 09:08:29;;;;;;;10.00;2.95;;;7.70;91.80;;;;;;4931063;28;20031;-80
2021/11/17 09:10:59;;;;;;;8.13;2.88;;;7.70;91.70;;;;;;4916169;29;20067;-80
2021/11/17 09:13:25;;;;;;;8.48;3.60;;;7.70;91.80;;;;;;4928677;29;20044;-79
2021/11/17 09:15:53;;;;;;;8.70;2.75;;;7.70;91.80;;;;;;4918012;29;20063;-79
2021/11/17 09:18:30;;;;;;;9.02;3.53;;;7.80;91.80;;;;;;4934442;29;20032;-78
2021/11/17 09:20:58;;;;;;;9.10;3.47;;;7.70;91.80;;;;;;4892111;29;20089;-78
2021/11/17 09:23:29;;;;;;;9.00;3.10;;;7.70;91.80;;;;;;5085978;23;20047;-81
2021/11/17 09:25:57;;;;;;;8.05;3.30;;;7.70;91.90;;;;;;4956153;28;20515;-81
2021/11/17 09:28:25;;;;;;;6.25;2.65;;;7.80;91.90;;;;;;4940271;28;20050;-81
2021/11/17 09:30:52;;;;;;;9.02;3.53;;;7.70;91.90;;;;;;4932123;29;21081;-79
2021/11/17 09:33:19;;;;;;;8.30;3.03;;;7.80;91.90;;;;;;4916434;29;20542;-80
2021/11/17 09:35:48;;;;;;;7.72;2.90;;;7.90;91.90;;;;;;4932295;29;20458;-80
2021/11/17 09:38:15;;;;;;;10.85;3.70;;;7.90;91.90;;;;;;4916904;29;20042;-79
2021/11/17 09:40:47;;;;;;;6.75;3.10;;;7.90;91.90;;;;;;4934796;29;20099;-81
2021/11/17 09:44:06;;;;;;;7.85;3.45;;;7.90;91.90;;;;;;4903131;29;20071;-84
2021/11/17 09:46:34;;;;;;;10.02;3.65;;;8.00;91.90;;;;;;4846592;29;20085;-79
2021/11/17 09:49:06;;;;;;;7.18;2.92;;;8.00;91.90;;;;;;4851079;29;20056;-78
2021/11/17 09:51:37;;;;;;;6.85;2.65;;;7.90;91.90;;;;;;4869152;29;20049;-78
2021/11/17 09:54:15;;;;;;;8.60;3.03;;;8.00;91.90;;;;;;4854571;29;20496;-76
2021/11/17 09:56:45;;;;;;;8.60;2.80;;;8.00;91.90;;;;;;4853740;29;20053;-77
2021/11/17 09:59:21;;;;;;;8.33;2.87;;;8.00;91.90;;;;;;4874749;29;20090;-77
2021/11/17 10:02:22;;;;;;;6.05;2.38;;;8.00;91.90;;;;;;4881675;29;20340;-77
2021/11/17 10:05:04;;;;;;;5.50;2.25;;;8.10;92.00;;;;;;4918419;29;20037;-76
2021/11/17 10:11:10;;;;;;;6.78;2.60;;;8.20;92.00;;;;;;4900797;29;20036;-77
2021/11/17 10:13:37;;;;;;;6.00;2.37;;;8.30;92.00;;;;;;5028065;23;20062;31
2021/11/17 10:16:04;;;;;;;8.43;2.70;;;8.30;92.00;;;;;;4911818;29;20875;-77
2021/11/17 10:18:38;;;;;;;7.53;2.92;;;8.30;91.90;;;;;;4915473;29;20048;-78
2021/11/17 10:21:26;;;;;;;8.25;3.10;;;8.40;91.90;;;;;;4913591;29;20530;-77
2021/11/17 10:23:57;;;;;;;6.65;2.88;;;8.40;92.00;;;;;;4917102;29;20041;-78
2021/11/17 10:26:26;;;;;;;8.15;3.00;;;8.40;92.00;;;;;;4913701;29;20028;-78
2021/11/17 10:28:57;;;;;;;6.68;2.20;;;8.40;92.00;;;;;;4915861;29;20032;-77
2021/11/17 10:31:29;;;;;;;6.85;2.33;;;8.40;92.00;;;;;;4913371;29;20053;-79
2021/11/17 10:34:18;;;;;;;5.20;2.38;;;8.50;92.00;;;;;;4911320;29;20509;-79
2021/11/17 10:36:55;;;;;;;7.35;2.75;;;8.50;92.00;;;;;;4909282;29;20024;-81
2021/11/17 10:39:47;;;;;;;10.10;2.80;;;8.60;92.00;;;;;;5164320;23;20022;-85
2021/11/17 10:45:39;;;;;;;;;;;8.60;92.00;;;;;;4875869;29;20034;-82
2021/11/17 10:48:30;;;;;;;4.40;1.77;;;8.70;92.00;;;;;;4860861;29;19920;-82
2021/11/17 10:51:12;;;;;;;6.25;2.30;;;8.70;92.00;;;;;;4846454;29;20128;-80
2021/11/17 10:53:38;;;;;;;5.65;2.47;;;8.70;92.00;;;;;;4844557;29;20420;-80
2021/11/17 10:56:09;;;;;;;6.22;2.33;;;8.70;92.00;;;;;;4828903;29;20508;-79
2021/11/17 10:58:39;;;;;;;7.65;2.45;;;8.80;92.00;;;;;;4875108;29;20846;-79
2021/11/17 11:01:18;;;;;;;5.75;2.60;;;8.80;92.00;;;;;;4859990;29;20131;-82
2021/11/17 11:03:51;;;;;;;8.40;2.97;;;8.80;92.00;;;;;;4828354;29;20492;-84
2021/11/17 11:06:22;;;;;;;6.72;2.58;;;8.90;92.00;;;;;;4815572;29;20144;-82
2021/11/17 11:09:00;;;;;;;7.10;2.33;;;8.90;92.00;;;;;;4859881;29;20041;-82
2021/11/17 11:11:30;;;;;;;8.43;3.00;;;9.00;92.00;;;;;;4829374;29;20115;-82
2021/11/17 11:14:11;;;;;;;6.40;2.72;;;9.00;92.00;;;;;;4886680;29;20123;-79
2021/11/17 11:16:42;;;;;;;8.95;3.17;;;9.20;92.00;;;;;;4899317;29;20145;-78
2021/11/17 11:19:27;;;;;;;7.28;3.20;;;9.10;92.00;;;;;;4928923;29;20071;-79
2021/11/17 11:22:05;;;;;;;10.10;3.72;;;9.20;92.30;;;;;;4938423;29;20059;-79
2021/11/17 11:24:40;;;;;;;7.72;3.00;;;9.20;92.00;;;;;;4956030;29;20043;-79
2021/11/17 11:27:12;;;;;;;9.38;3.13;;;9.30;92.00;;;;;;4954426;28;20394;-79
2021/11/17 11:29:42;;;;;;;9.40;3.55;;;9.30;91.90;;;;;;4938286;29;20043;-80
2021/11/17 11:32:46;;;;;;;7.32;3.20;;;9.40;91.90;;;;;;4939079;29;20074;-79
2021/11/17 11:35:16;;;;;;;7.80;3.58;;;9.50;91.90;;;;;;4960714;29;20062;-77
2021/11/17 11:38:01;;;;;;;10.13;3.70;;;9.50;91.90;;;;;;4962718;29;20039;-78
2021/11/17 11:40:50;;;;;;;9.88;3.88;;;9.60;91.90;;;;;;4964053;29;20054;-78
2021/11/17 11:43:20;;;;;;;8.65;3.50;;;9.60;91.90;;;;;;4963614;29;20028;-78
2021/11/17 11:45:50;;;;;;;6.32;3.10;;;9.70;91.80;;;;;;4963404;29;20126;-78
2021/11/17 11:48:54;;;;;;;8.38;3.28;;;9.80;91.80;;;;;;4945112;29;20047;-78
2021/11/17 11:51:56;;;;;;;7.22;3.17;;;9.80;91.90;;;;;;4962225;29;20126;-78
2021/11/17 11:54:29;;;;;;;8.80;3.85;;;9.80;91.90;;;;;;4944289;29;20050;-78
2021/11/17 11:57:34;;;;;;;9.32;3.45;;;10.00;91.90;;;;;;4963220;29;20059;-78
2021/11/17 12:00:09;;;;;;;10.77;3.75;;;10.10;91.90;;;;;;4962436;29;20101;-78
2021/11/17 12:02:41;;;;;;;8.93;3.15;;;10.20;91.70;;;;;;4962553;29;20544;-78
2021/11/17 12:05:12;;;;;;;8.43;3.30;;;10.20;91.60;;;;;;4963847;29;20074;-78
2021/11/17 12:14:57;;;;;;;7.47;3.70;;;10.10;91.80;;;;;;4815790;29;20495;-83
2021/11/17 12:21:17;;;;;;;7.28;3.30;;;10.40;91.80;;;;;;4784185;29;20055;-81
2021/11/17 12:24:31;;;;;;;9.32;3.42;;;10.50;91.70;;;;;;4712923;30;20559;-80
2021/11/17 12:28:10;;;;;;;6.97;3.13;;;10.60;91.70;;;;;;4725484;30;20052;-82
2021/11/17 12:30:59;;;;;;;6.80;3.13;;;10.60;91.70;;;;;;4702012;30;20068;-84
2021/11/17 12:33:53;;;;;;;6.03;3.10;;;10.70;91.70;;;;;;4686989;30;20038;-83
2021/11/17 12:43:36;;;;;;;6.70;3.05;;;10.90;91.70;;;;;;5001822;23;20060;-80
2021/11/17 12:46:13;;;;;;;7.43;3.17;;;11.20;91.70;;;;;;4932163;29;20083;-81
2021/11/17 12:48:47;;;;;;;7.65;3.45;;;11.20;91.50;;;;;;4936940;29;20047;-78
2021/11/17 12:51:19;;;;;;;7.47;3.10;;;11.30;91.40;;;;;;4956899;29;20032;-79
2021/11/17 12:54:00;;;;;;;7.70;3.25;;;11.10;91.40;;;;;;4954145;29;20039;-79
2021/11/17 12:56:31;;;;;;;6.30;2.88;;;11.20;91.50;;;;;;4956039;29;20051;-79
2021/11/17 12:59:12;;;;;;;7.18;3.33;;;11.10;91.60;;;;;;4960279;29;20133;-80
2021/11/17 13:01:42;;;;;;;6.63;2.92;;;11.10;91.70;;;;;;4953484;28;20047;-79
2021/11/17 13:07:40;;;;;;;7.18;3.28;;;11.20;91.90;;;;;;4924277;29;20374;-78
2021/11/17 13:10:11;;;;;;;5.43;2.28;;;11.10;91.90;;;;;;4937238;29;20047;-77
2021/11/17 13:12:53;;;;;;;4.22;1.90;;;11.00;91.90;;;;;;4937400;29;20043;-77
2021/11/17 13:15:25;;;;;;;5.07;1.98;;;11.10;92.00;;;;;;4950872;28;20051;-76
2021/11/17 13:18:26;;;;;;;4.60;2.38;;;11.00;92.00;;;;;;4916711;29;20063;-84
2021/11/17 13:24:42;;;;;;;4.47;2.13;;;11.00;92.10;;;;;;4800513;29;20150;-82
2021/11/17 13:27:23;;;;;;;3.30;1.58;;;10.80;92.10;;;;;;4787992;29;20072;-83
2021/11/17 13:29:55;;;;;;;4.55;2.00;;;10.90;92.20;;;;;;4786503;30;20043;-82
2021/11/17 13:32:35;;;;;;;4.78;1.95;;;10.90;92.20;;;;;;4788467;30;20051;-83
2021/11/17 13:39:28;;;;;;;5.30;2.28;;;10.80;92.30;;;;;;4799796;29;20103;-81
2021/11/17 13:48:55;;;;;;;3.58;1.70;;;10.80;92.30;;;;;;4647498;30;20055;-78
2021/11/17 13:51:26;;;;;;;2.17;1.17;;;10.80;92.30;;;;;;4646287;30;20050;-80
2021/11/17 13:53:53;;;;;;;3.73;1.53;;;10.90;92.30;;;;;;4640921;30;20061;-79
2021/11/17 13:56:26;;;;;;;4.05;1.58;;;11.00;92.30;;;;;;4698575;30;20285;-79
2021/11/17 13:58:54;;;;;;;3.70;1.70;;;11.00;92.20;;;;;;4689234;30;20046;-81
2021/11/17 14:01:20;;;;;;;2.95;1.50;;;11.10;92.10;;;;;;4697461;30;20057;-83
2021/11/17 14:04:03;;;;;;;3.75;1.50;;;11.20;92.00;;;;;;4702106;30;20130;-83
2021/11/17 14:06:32;;;;;;;3.58;1.42;;;11.10;92.00;;;;;;4684500;30;20054;-80
2021/11/17 14:09:16;;;;;;;2.78;1.20;;;11.20;92.00;;;;;;4711026;30;20064;-80
2021/11/17 14:12:14;;;;;;;2.78;1.35;;;11.20;92.00;;;;;;4675916;30;20529;-80
2021/11/17 14:14:58;;;;;;;2.28;1.20;;;11.30;92.00;;;;;;4732881;30;20057;-82
2021/11/17 14:17:37;;;;;;;2.88;1.38;;;11.30;91.90;;;;;;4668659;30;20055;-83
2021/11/17 14:23:00;;;;;;;2.25;1.10;;;11.30;91.90;;;;;;4670963;30;20035;-80
2021/11/17 14:25:28;;;;;;;2.63;1.00;;;11.30;91.80;;;;;;4669358;30;20046;-82
2021/11/17 14:27:59;;;;;;;2.60;1.10;;;11.30;91.80;;;;;;4667385;30;20487;-79
2021/11/17 14:30:33;;;;;;;1.70;0.93;;;11.30;91.80;;;;;;4675353;30;20042;-80
2021/11/17 14:32:59;;;;;;;3.00;0.98;;;11.30;91.80;;;;;;4689940;30;20826;-82
2021/11/17 14:35:39;;;;;;;3.30;0.80;;;11.20;91.80;;;;;;4668230;30;20050;-82
2021/11/17 14:38:10;;;;;;;1.73;0.75;;;11.20;91.80;;;;;;4658266;30;20170;-79
2021/11/17 14:40:43;;;;;;;3.42;0.90;;;11.00;91.80;;;;;;5353338;23;20796;-79
2021/11/17 14:43:12;;;;;;;3.17;0.80;;;11.00;91.90;;;;;;4882713;29;20040;-78
2021/11/17 14:45:40;;;;;;;2.60;0.68;;;10.80;91.90;;;;;;4862374;29;20064;-80
2021/11/17 14:48:06;;;;;;;1.13;0.50;;;10.80;92.00;;;;;;4863034;29;20443;-79
2021/11/17 14:50:43;;;;;;;2.08;0.73;;;10.80;92.00;;;;;;4849513;29;20112;-82
2021/11/17 14:53:44;;;;;;;2.45;0.50;;;10.80;92.00;;;;;;4862330;29;20097;-82
2021/11/17 14:57:11;;;;;;;2.22;0.57;;;10.80;92.00;;;;;;4846560;29;20081;-80
2021/11/17 15:00:52;;;;;;;0.80;0.35;;;10.80;92.10;;;;;;4800159;29;20047;-82
2021/11/17 15:03:19;;;;;;;0.80;0.28;;;10.70;92.00;;;;;;4756439;30;20060;-80
2021/11/17 15:05:45;;;;;;;0.73;0.22;;;10.70;91.90;;;;;;4736706;30;20048;-80
2021/11/17 15:08:11;;;;;;;1.23;0.45;;;10.70;92.00;;;;;;4727378;30;20059;-81
2021/11/17 15:10:40;;;;;;;0.80;0.25;;;10.60;92.00;;;;;;4756070;30;20040;-83
2021/11/17 15:13:07;;;;;;;0.28;0.20;;;10.50;92.00;;;;;;4746170;30;20063;-85
2021/11/17 15:15:42;;;;;;;0.20;0.20;;;10.40;92.10;;;;;;4769628;30;20055;-86
2021/11/17 15:22:07;;;;;;;0.85;0.20;;;10.20;92.10;;;;;;4784200;29;20122;-86
2021/11/17 15:24:36;;;;;;;1.23;0.28;;;10.20;92.20;;;;;;4774615;30;20031;-82
2021/11/17 15:27:25;;;;;;;0.77;0.55;;;10.30;92.30;;;;;;4764194;29;20498;-83
2021/11/17 15:29:54;;;;;;;0.75;0.30;;;10.00;92.30;;;;;;4829203;29;20034;-83
2021/11/17 15:32:20;;;;;;;1.30;0.40;;;10.00;92.40;;;;;;4828213;29;20034;-83
2021/11/17 15:34:47;;;;;;;1.02;0.30;;;9.90;92.40;;;;;;4847768;29;20054;-82
2021/11/17 15:37:36;;;;;;;1.20;0.30;;;9.70;92.40;;;;;;4848372;29;20034;-88
2021/11/17 15:46:46;;;;;;;0.50;0.20;;;9.50;92.50;;;;;;4836175;29;20048;-86
2021/11/17 15:49:58;;;;;;;0.10;0.10;;;9.40;92.50;;;;;;4829921;29;20071;-84
2021/11/17 15:52:43;;;;;;;2.95;0.38;;;9.30;92.60;;;;;;4839545;29;20039;-82
2021/11/17 15:55:40;;;;;;;0.20;0.20;;;9.20;92.60;;;;;;4799158;29;20134;-85
2021/11/17 16:08:38;;;;;;;1.00;0.30;;;8.90;92.70;;;;;;6038538;23;20083;-83
2021/11/17 16:33:19;;;;;;;1.63;0.38;;;8.30;92.80;;;;;;4881080;28;20061;-86
2021/11/17 16:35:49;;;;;;;0.40;0.30;;;8.20;92.80;;;;;;4879406;29;20056;-80
2021/11/17 16:38:17;;;;;;;1.40;0.47;;;8.10;92.80;;;;;;4894521;29;20048;-80
2021/11/17 16:40:45;;;;;;;1.02;0.40;;;8.20;92.90;;;;;;4896250;29;20052;-80
2021/11/17 16:43:14;;;;;;;0.77;0.30;;;8.00;92.90;;;;;;4894322;29;20041;-80
2021/11/17 16:45:41;;;;;;;0.60;0.43;;;8.00;92.90;;;;;;4878638;29;20056;-80
2021/11/17 16:48:08;;;;;;;0.30;0.30;;;7.90;92.90;;;;;;4896270;29;20037;-80
2021/11/17 16:50:35;;;;;;;0.75;0.30;;;7.90;92.90;;;;;;4880878;29;20032;-80
2021/11/17 16:53:01;;;;;;;1.77;0.30;;;7.80;92.90;;;;;;4896236;29;20053;-80
2021/11/17 16:55:30;;;;;;;0.30;0.20;;;7.90;92.90;;;;;;4896406;29;20129;-80
2021/11/17 16:57:57;;;;;;;1.65;0.50;;;7.80;92.90;;;;;;4898099;29;20037;-78
2021/11/17 17:00:29;;;;;;;0.75;0.30;;;7.70;93.10;;;;;;4900949;29;20503;-79
2021/11/17 17:02:55;;;;;;;1.33;0.32;;;7.70;92.90;;;;;;4901358;29;20048;-79
2021/11/17 17:05:24;;;;;;;1.02;0.40;;;7.70;92.90;;;;;;4901786;29;20043;-79
2021/11/17 17:07:50;;;;;;;0.55;0.38;;;7.60;92.80;;;;;;4882222;29;20040;-78
2021/11/17 17:10:19;;;;;;;1.35;0.20;;;7.60;92.90;;;;;;4897479;29;20041;-78
2021/11/17 17:12:47;;;;;;;0.52;0.30;;;7.60;92.90;;;;;;4897801;29;20032;-78
2021/11/17 17:15:15;;;;;;;2.28;0.40;;;7.50;92.90;;;;;;4884196;29;20044;-79
2021/11/17 17:17:44;;;;;;;0.95;0.32;;;7.50;92.90;;;;;;4900338;29;20226;-79
2021/11/17 17:20:14;;;;;;;1.38;0.40;;;7.50;92.80;;;;;;4901348;29;20045;-79
2021/11/17 17:22:40;;;;;;;1.48;0.40;;;7.50;92.80;;;;;;4903787;29;20044;-79
2021/11/17 17:25:08;;;;;;;1.00;0.40;;;7.50;92.80;;;;;;4903819;29;20059;-79
2021/11/17 17:27:35;;;;;;;0.82;0.38;;;7.50;92.80;;;;;;4884024;29;20053;-79
2021/11/17 17:30:01;;;;;;;0.35;0.30;;;7.50;92.80;;;;;;4900976;29;20041;-79
2021/11/17 17:32:27;;;;;;;0.30;0.20;;;7.50;92.80;;;;;;4902278;29;20123;-79
2021/11/17 17:34:53;;;;;;;0.35;0.30;;;7.40;92.80;;;;;;4897875;29;20051;-79
2021/11/17 17:37:20;;;;;;;0.60;0.50;;;7.30;92.80;;;;;;4884709;29;20798;-79
2021/11/17 17:39:46;;;;;;;0.10;0.10;;;7.40;92.80;;;;;;4901711;29;20040;-79
2021/11/17 17:42:21;;;;;;;1.55;0.40;;;7.30;92.80;;;;;;4894670;29;20041;-83
2021/11/17 17:44:48;;;;;;;0.63;0.35;;;7.30;92.80;;;;;;4907643;29;20029;-84
2021/11/17 17:47:16;;;;;;;0.98;0.30;;;7.30;92.80;;;;;;4844079;29;20058;-79
2021/11/17 17:49:43;;;;;;;0.28;0.22;;;7.20;92.70;;;;;;4839416;29;20081;-79
2021/11/17 17:52:12;;;;;;;0.30;0.30;;;7.30;92.80;;;;;;4839350;29;20042;-79
2021/11/17 17:54:40;;;;;;;1.08;0.38;;;7.20;92.70;;;;;;4839035;29;20070;-79